Terminal Aerodrome Forecast
Issued by NWS

Home | Current Version | Previous Version | Text Only | Print | Product List | Glossary On
Versions: 1 2 3 4 5 6 7 8 9 10 11 12 13 14 15 16
000
FTUS45 KRIW 222300
TAFCOD
TAF
KCOD 222327Z 2300/2324 VRB06KT P6SM VCTS SCT035CB BKN060
      TEMPO 2301/2303 VRB10G20KT -TSRA BKN025CB
     FM230500 VRB05KT P6SM VCSH SCT020 BKN040
     FM231500 01008KT P6SM VCSH SCT030 BKN050
     FM232200 02016G26KT P6SM VCTS SCT030CB BKN050
      AMD LTD TO CLD VIS AND WIND=

USA.gov is the U.S. government's official web portal to all federal, state and local government web resources and services.